Time;durP1;ratioP1;P1;durP2;ratioP2;P2;SDS_P1;SDS_P2;PMS_P1;PMS_P2;Temp;Humidity;BMP_temperature;BMP_pressure;BME280_temperature;BME280_humidity;BME280_pressure;Samples;Min_cycle;Max_cycle;Signal;HPM_P1;HPM_P2
2022/04/18 00:00:04;;;;;;;22.80;15.02;;;8.50;73.60;;;;;;4865299;29;20053;-77
2022/04/18 00:02:29;;;;;;;22.73;14.70;;;8.40;74.80;;;;;;4865217;29;20045;-77
2022/04/18 00:04:55;;;;;;;22.42;14.88;;;8.40;75.90;;;;;;4865250;29;20053;-77
2022/04/18 00:07:21;;;;;;;18.52;14.80;;;8.30;78.40;;;;;;4865322;29;20060;-77
2022/04/18 00:09:46;;;;;;;22.20;14.75;;;8.30;77.50;;;;;;4865545;29;20056;-77
2022/04/18 00:12:12;;;;;;;21.08;14.57;;;8.30;78.10;;;;;;4865320;29;20049;-77
2022/04/18 00:14:37;;;;;;;23.55;15.82;;;8.30;79.70;;;;;;4865450;29;20052;-77
2022/04/18 00:17:08;;;;;;;22.33;15.35;;;8.20;81.60;;;;;;4881871;29;20443;-77
2022/04/18 00:19:35;;;;;;;20.55;14.48;;;8.20;80.90;;;;;;4881933;29;20089;-77
2022/04/18 00:22:01;;;;;;;23.48;15.30;;;8.10;82.30;;;;;;4881709;29;20045;-77
2022/04/18 00:24:26;;;;;;;24.30;16.48;;;8.10;83.50;;;;;;4864859;29;20599;-77
2022/04/18 00:26:52;;;;;;;23.80;15.32;;;8.10;84.00;;;;;;4864720;29;20060;-77
2022/04/18 00:29:18;;;;;;;23.50;15.48;;;8.10;85.90;;;;;;4864979;29;20064;-77
2022/04/18 00:31:44;;;;;;;24.35;15.60;;;8.00;87.60;;;;;;4864826;29;20052;-77
2022/04/18 00:34:09;;;;;;;22.05;15.57;;;8.00;89.80;;;;;;4865135;29;20052;-77
2022/04/18 00:36:35;;;;;;;21.90;15.13;;;7.90;87.70;;;;;;4864783;29;20049;-77
2022/04/18 00:39:01;;;;;;;24.35;15.65;;;7.90;90.40;;;;;;4864807;29;20056;-77
2022/04/18 00:41:26;;;;;;;23.60;15.52;;;7.90;88.50;;;;;;4864849;29;20057;-77
2022/04/18 00:43:52;;;;;;;20.95;14.95;;;7.90;91.10;;;;;;4864806;29;20144;-77
2022/04/18 00:46:19;;;;;;;24.05;15.70;;;7.80;92.40;;;;;;4864773;29;20569;-77
2022/04/18 00:48:46;;;;;;;25.75;16.77;;;7.80;92.10;;;;;;4864769;29;20053;-76
2022/04/18 00:51:14;;;;;;;20.67;14.70;;;7.80;92.90;;;;;;4881373;29;20128;-76
2022/04/18 00:53:41;;;;;;;23.60;15.38;;;7.70;93.10;;;;;;4864720;29;20052;-76
2022/04/18 00:56:09;;;;;;;20.60;15.23;;;7.70;93.50;;;;;;4864720;29;20493;-76
2022/04/18 00:58:36;;;;;;;24.92;15.63;;;7.70;95.00;;;;;;4864318;29;20048;-76
2022/04/18 01:01:02;;;;;;;22.48;15.82;;;7.70;95.10;;;;;;4864517;29;20493;-76
2022/04/18 01:03:30;;;;;;;20.92;15.65;;;7.60;94.90;;;;;;4863823;29;20056;-77
2022/04/18 01:05:58;;;;;;;22.73;15.13;;;7.60;95.90;;;;;;4849437;29;20049;-76
2022/04/18 01:08:25;;;;;;;20.80;14.43;;;7.60;96.90;;;;;;4881023;29;20126;-77
2022/04/18 01:10:52;;;;;;;26.50;15.63;;;7.50;96.40;;;;;;4864129;29;20049;-77
2022/04/18 01:13:18;;;;;;;24.08;15.27;;;7.50;97.20;;;;;;4863965;29;20053;-77
2022/04/18 01:15:44;;;;;;;24.92;15.80;;;7.50;97.70;;;;;;4864132;29;20114;-77
2022/04/18 01:18:09;;;;;;;22.38;15.75;;;7.50;97.80;;;;;;4864289;29;20049;-77
2022/04/18 01:20:35;;;;;;;20.98;14.27;;;7.50;97.40;;;;;;4863986;29;20558;-77
2022/04/18 01:23:04;;;;;;;22.15;14.50;;;7.50;98.30;;;;;;4864227;29;20124;-77
2022/04/18 01:30:59;;;;;;;24.55;15.80;;;7.40;99.20;;;;;;4880631;29;20076;-77
2022/04/18 01:33:26;;;;;;;21.83;15.70;;;7.40;99.50;;;;;;4880609;29;20423;-77
2022/04/18 01:35:51;;;;;;;24.90;15.98;;;7.40;99.90;;;;;;4863747;29;20055;-76
2022/04/18 01:38:17;;;;;;;21.88;15.00;;;7.40;99.40;;;;;;4863625;29;20044;-76
2022/04/18 01:40:43;;;;;;;21.77;14.38;;;7.30;99.90;;;;;;4880454;29;20123;-76
2022/04/18 01:43:08;;;;;;;23.50;16.08;;;7.30;99.90;;;;;;4880345;29;20049;-76
2022/04/18 01:45:37;;;;;;;22.02;15.38;;;7.40;99.90;;;;;;4880374;29;20049;-76
2022/04/18 01:48:03;;;;;;;21.75;14.65;;;7.30;99.90;;;;;;4863836;29;20044;-77
2022/04/18 01:50:28;;;;;;;21.38;15.00;;;7.30;99.90;;;;;;4863602;29;20076;-77
2022/04/18 01:52:54;;;;;;;24.63;14.40;;;7.30;99.90;;;;;;4863448;29;20053;-77
2022/04/18 01:55:19;;;;;;;24.75;15.13;;;7.20;99.90;;;;;;4863561;29;20126;-76
2022/04/18 01:57:45;;;;;;;21.25;15.38;;;7.20;99.90;;;;;;4863489;29;20379;-76
2022/04/18 02:00:11;;;;;;;20.90;14.95;;;7.20;99.90;;;;;;4863409;29;20145;-76
2022/04/18 02:02:36;;;;;;;22.13;15.25;;;7.10;99.90;;;;;;4863379;29;20486;-76
2022/04/18 02:05:04;;;;;;;25.92;15.40;;;7.10;99.90;;;;;;4879982;29;20049;-76
2022/04/18 02:07:30;;;;;;;25.02;15.70;;;7.10;99.90;;;;;;4863426;29;20135;-76
2022/04/18 02:09:55;;;;;;;25.13;15.23;;;7.00;99.90;;;;;;4863689;29;20135;-76
2022/04/18 02:12:21;;;;;;;24.60;15.63;;;7.10;99.90;;;;;;4863556;29;20386;-76
2022/04/18 02:14:47;;;;;;;22.65;14.88;;;7.00;99.90;;;;;;4862582;29;20117;-76
2022/04/18 02:17:13;;;;;;;25.92;16.10;;;7.00;99.90;;;;;;4863470;29;20068;-76
2022/04/18 02:19:39;;;;;;;24.17;15.18;;;7.00;99.90;;;;;;4863266;29;20056;-76
2022/04/18 02:22:05;;;;;;;23.48;16.33;;;7.00;99.90;;;;;;4879968;29;20049;-76
2022/04/18 02:24:31;;;;;;;23.48;15.05;;;6.90;99.90;;;;;;4862960;29;20057;-76
2022/04/18 02:26:57;;;;;;;25.60;14.85;;;7.00;99.90;;;;;;4862976;29;20061;-76
2022/04/18 02:29:23;;;;;;;21.05;14.98;;;7.00;99.90;;;;;;4863152;29;20132;-76
2022/04/18 02:34:33;;;;;;;19.98;14.80;;;6.90;99.90;;;;;;4862934;29;20197;-76
2022/04/18 02:36:59;;;;;;;24.75;14.93;;;6.90;99.90;;;;;;4863235;29;20127;-77
2022/04/18 02:39:25;;;;;;;25.48;15.40;;;6.90;99.90;;;;;;4879807;29;20053;-77
2022/04/18 02:41:50;;;;;;;25.65;15.98;;;6.90;99.90;;;;;;4863247;29;20128;-77
2022/04/18 02:44:16;;;;;;;23.15;14.43;;;7.00;99.90;;;;;;4863005;29;20104;-77
2022/04/18 02:46:41;;;;;;;26.30;16.25;;;7.00;99.90;;;;;;4879697;29;20101;-77
2022/04/18 02:49:07;;;;;;;25.20;17.45;;;7.00;99.90;;;;;;4879701;29;20049;-77
2022/04/18 02:51:33;;;;;;;20.60;14.00;;;6.90;99.90;;;;;;4879755;29;20041;-77
2022/04/18 02:53:59;;;;;;;23.20;15.32;;;6.90;99.90;;;;;;4862949;29;20051;-77
2022/04/18 02:56:25;;;;;;;24.35;15.88;;;6.90;99.90;;;;;;4862885;29;20045;-76
2022/04/18 02:58:50;;;;;;;23.00;15.45;;;6.90;99.90;;;;;;4862931;29;20049;-77
2022/04/18 03:01:16;;;;;;;24.88;15.27;;;6.80;99.90;;;;;;4863205;29;20053;-77
2022/04/18 03:03:44;;;;;;;24.25;15.27;;;6.80;99.90;;;;;;4862441;29;20052;-77
2022/04/18 03:06:10;;;;;;;23.95;15.45;;;6.80;99.90;;;;;;4862976;29;20442;-76
2022/04/18 03:08:36;;;;;;;24.60;14.93;;;6.70;99.90;;;;;;4862793;29;20482;-76
2022/04/18 03:11:05;;;;;;;24.38;15.85;;;6.70;99.90;;;;;;4863103;29;20049;-76
2022/04/18 03:13:32;;;;;;;26.90;15.70;;;6.70;99.90;;;;;;4862811;29;20063;-76
2022/04/18 03:15:59;;;;;;;24.30;16.20;;;6.70;99.90;;;;;;4862787;29;20121;-76
2022/04/18 03:18:25;;;;;;;24.25;15.45;;;6.60;99.90;;;;;;4862601;29;20131;-76
2022/04/18 03:20:50;;;;;;;22.35;15.00;;;6.60;99.90;;;;;;4879259;29;20490;-77
2022/04/18 03:23:16;;;;;;;23.70;15.82;;;6.60;99.90;;;;;;4862816;29;20077;-77
2022/04/18 03:25:42;;;;;;;23.95;15.35;;;6.60;99.90;;;;;;4863441;29;20061;-77
2022/04/18 03:28:09;;;;;;;25.00;15.75;;;6.60;99.90;;;;;;4866248;29;20494;-77
2022/04/18 03:30:34;;;;;;;22.52;15.57;;;6.60;99.90;;;;;;4865843;29;20057;-77
2022/04/18 03:33:00;;;;;;;24.63;15.70;;;6.60;99.90;;;;;;4865810;29;20041;-77
2022/04/18 03:35:27;;;;;;;24.10;15.32;;;6.60;99.90;;;;;;4865809;29;20144;-77
2022/04/18 03:40:37;;;;;;;25.33;15.52;;;6.50;99.90;;;;;;4865838;29;20121;-77
2022/04/18 03:43:03;;;;;;;23.10;15.27;;;6.50;99.90;;;;;;4882456;29;20037;-77
2022/04/18 03:45:29;;;;;;;24.75;15.50;;;6.40;99.90;;;;;;4865837;29;20100;-77
2022/04/18 03:47:54;;;;;;;22.73;15.30;;;6.40;99.90;;;;;;4865656;29;20092;-76
2022/04/18 03:50:20;;;;;;;23.90;15.82;;;6.40;99.90;;;;;;4865609;29;20099;-76
2022/04/18 03:52:46;;;;;;;22.67;15.90;;;6.30;99.90;;;;;;4882447;29;20541;-76
2022/04/18 03:55:11;;;;;;;22.02;15.48;;;6.30;99.90;;;;;;4865618;29;20089;-76
2022/04/18 03:57:37;;;;;;;22.95;15.05;;;6.20;99.90;;;;;;4865482;29;20056;-76
2022/04/18 04:00:05;;;;;;;23.83;14.88;;;6.20;99.90;;;;;;4865531;29;20053;-77
2022/04/18 04:02:31;;;;;;;28.23;15.82;;;6.20;99.90;;;;;;4882110;29;20060;-77
2022/04/18 04:04:56;;;;;;;24.63;16.13;;;6.10;99.90;;;;;;4865312;29;20053;-77
2022/04/18 04:07:22;;;;;;;22.75;16.35;;;6.10;99.90;;;;;;4865621;29;20052;-77
2022/04/18 04:09:48;;;;;;;23.27;15.82;;;6.10;99.90;;;;;;4865633;29;20517;-76
2022/04/18 04:12:13;;;;;;;24.70;15.90;;;6.10;99.90;;;;;;4881737;29;20421;-76
2022/04/18 04:14:39;;;;;;;24.23;16.02;;;6.10;99.90;;;;;;4881970;29;20048;-76
2022/04/18 04:17:05;;;;;;;24.70;16.67;;;6.10;99.90;;;;;;4864955;29;20136;-76
2022/04/18 04:19:30;;;;;;;24.33;15.82;;;6.00;99.90;;;;;;4865183;29;20135;-76
2022/04/18 04:21:56;;;;;;;22.13;15.65;;;6.00;99.90;;;;;;4864712;29;20067;-76
2022/04/18 04:24:22;;;;;;;26.00;16.17;;;6.00;99.90;;;;;;4863949;29;20049;-76
2022/04/18 04:26:49;;;;;;;25.13;15.80;;;6.00;99.90;;;;;;4889521;29;20049;-76
2022/04/18 04:29:15;;;;;;;26.42;16.55;;;6.00;99.90;;;;;;4899406;29;20131;-76
2022/04/18 04:31:41;;;;;;;24.75;17.17;;;6.00;99.90;;;;;;4900160;29;20037;-76
2022/04/18 04:34:10;;;;;;;22.55;16.15;;;6.00;99.90;;;;;;4899241;29;20450;-76
2022/04/18 04:36:35;;;;;;;22.80;15.32;;;6.00;99.90;;;;;;4898971;29;20136;-76
2022/04/18 04:39:01;;;;;;;23.58;16.05;;;6.00;99.90;;;;;;4899346;29;20123;-76
2022/04/18 04:41:27;;;;;;;26.25;16.45;;;6.00;99.90;;;;;;4898834;29;20108;-76
2022/04/18 04:43:52;;;;;;;25.25;16.60;;;5.90;99.90;;;;;;4898567;29;20100;-76
2022/04/18 04:46:18;;;;;;;21.90;15.55;;;5.90;99.90;;;;;;4898726;29;20045;-76
2022/04/18 04:48:43;;;;;;;28.88;16.88;;;5.90;99.90;;;;;;4898702;29;20104;-76
2022/04/18 04:51:09;;;;;;;23.65;16.73;;;5.90;99.90;;;;;;4898466;29;20063;-76
2022/04/18 04:53:35;;;;;;;24.70;16.05;;;5.90;99.90;;;;;;4898590;29;20045;-76
2022/04/18 04:56:00;;;;;;;23.33;16.15;;;5.90;99.90;;;;;;4899594;29;20045;-76
2022/04/18 04:58:27;;;;;;;23.48;14.68;;;5.90;99.90;;;;;;4898451;29;20131;-76
2022/04/18 05:00:53;;;;;;;23.90;15.45;;;6.00;99.90;;;;;;4898338;29;20059;-76
2022/04/18 05:03:18;;;;;;;23.88;16.17;;;6.00;99.90;;;;;;4898384;29;20056;-76
2022/04/18 05:05:44;;;;;;;22.52;16.00;;;6.10;99.90;;;;;;4898897;29;20083;-76
2022/04/18 05:08:10;;;;;;;22.90;14.43;;;6.10;99.90;;;;;;4900229;29;20036;-77
2022/04/18 05:10:35;;;;;;;24.80;14.65;;;6.20;99.90;;;;;;4898236;29;20515;-77
2022/04/18 05:13:01;;;;;;;20.33;14.73;;;6.20;99.90;;;;;;4897976;29;20048;-77
2022/04/18 05:15:26;;;;;;;22.90;15.18;;;6.30;99.90;;;;;;4899471;29;20080;-77
2022/04/18 05:17:52;;;;;;;24.30;15.25;;;6.30;99.90;;;;;;4897964;29;20386;-77
2022/04/18 05:20:18;;;;;;;21.70;15.15;;;6.40;99.90;;;;;;4897981;29;20052;-77
2022/04/18 05:22:44;;;;;;;23.33;15.65;;;6.50;99.90;;;;;;4897821;29;20041;-77
2022/04/18 05:25:09;;;;;;;24.55;14.75;;;6.50;99.90;;;;;;4898987;29;20393;-77
2022/04/18 05:27:35;;;;;;;22.85;15.85;;;6.60;99.90;;;;;;4898126;29;20401;-76
2022/04/18 05:30:01;;;;;;;20.52;14.50;;;6.70;99.90;;;;;;4897878;29;20059;-76
2022/04/18 05:32:26;;;;;;;21.80;14.52;;;6.80;99.90;;;;;;4897841;29;20131;-76
2022/04/18 05:35:14;;;;;;;21.42;14.13;;;6.90;99.90;;;;;;4915834;23;20080;-76
2022/04/18 05:37:40;;;;;;;23.40;15.43;;;7.00;99.90;;;;;;4900809;29;20396;-76
2022/04/18 05:40:38;;;;;;;22.08;13.98;;;7.00;99.90;;;;;;4840895;29;20058;-77
2022/04/18 05:43:17;;;;;;;21.52;14.18;;;7.20;99.90;;;;;;4825869;29;20510;-77
2022/04/18 05:45:55;;;;;;;22.08;14.30;;;7.30;99.90;;;;;;4876414;29;20564;-77
2022/04/18 05:48:36;;;;;;;24.83;15.65;;;7.40;99.90;;;;;;4900375;29;20051;-77
2022/04/18 05:51:10;;;;;;;22.13;14.40;;;7.50;99.90;;;;;;4900418;29;20052;-77
2022/04/18 05:53:36;;;;;;;22.13;15.32;;;7.60;99.90;;;;;;4900625;29;20055;-78
2022/04/18 05:56:20;;;;;;;20.33;14.40;;;7.70;99.90;;;;;;4900922;29;20056;-77
2022/04/18 05:58:55;;;;;;;23.23;15.52;;;7.80;99.90;;;;;;4917610;29;20099;-78
2022/04/18 06:01:24;;;;;;;22.65;15.13;;;8.00;99.90;;;;;;4900574;29;20052;-77
2022/04/18 06:04:08;;;;;;;23.02;15.48;;;8.10;99.90;;;;;;4900620;29;20059;-78
2022/04/18 06:06:34;;;;;;;21.98;14.60;;;8.20;99.90;;;;;;4923654;23;20350;-77
2022/04/18 06:09:00;;;;;;;22.70;15.23;;;8.20;99.90;;;;;;4914646;29;20088;-77
2022/04/18 06:11:26;;;;;;;22.50;14.88;;;8.30;99.90;;;;;;4915989;29;20053;-77
2022/04/18 06:13:51;;;;;;;21.63;14.50;;;8.40;99.90;;;;;;4920449;29;20043;-77
2022/04/18 06:16:17;;;;;;;22.45;14.70;;;8.50;99.90;;;;;;4928707;29;20048;-77
2022/04/18 06:18:42;;;;;;;24.00;14.95;;;8.60;99.90;;;;;;4934586;29;20048;-76
2022/04/18 06:21:08;;;;;;;25.95;15.30;;;8.70;99.90;;;;;;4936070;29;20130;-77
2022/04/18 06:23:33;;;;;;;20.95;14.32;;;8.80;99.90;;;;;;4936067;29;20051;-78
2022/04/18 06:25:59;;;;;;;24.00;14.93;;;8.90;99.90;;;;;;4934655;29;20419;-78
2022/04/18 06:28:25;;;;;;;21.70;14.40;;;9.10;99.90;;;;;;4934571;29;20048;-78
2022/04/18 06:30:50;;;;;;;21.42;14.57;;;9.20;99.90;;;;;;4934568;29;20047;-78
2022/04/18 06:33:16;;;;;;;24.08;14.63;;;9.40;99.90;;;;;;4934686;29;20090;-78
2022/04/18 06:35:42;;;;;;;24.23;15.75;;;9.50;99.90;;;;;;4934402;29;20048;-77
2022/04/18 06:40:43;;;;;;;23.33;15.50;;;9.70;99.90;;;;;;545195;27;20333;-78
2022/04/18 06:43:09;;;;;;;21.45;13.70;;;10.00;99.90;;;;;;4898532;29;20048;-78
2022/04/18 06:45:34;;;;;;;19.23;14.07;;;10.00;99.90;;;;;;4900049;29;20111;-79
2022/04/18 06:48:00;;;;;;;24.40;14.77;;;10.20;99.90;;;;;;4916934;29;20044;-81
2022/04/18 06:50:25;;;;;;;23.08;14.60;;;10.20;99.90;;;;;;4899668;29;20126;-81
2022/04/18 06:52:51;;;;;;;21.67;13.73;;;10.30;99.90;;;;;;4899835;29;20127;-79
2022/04/18 06:55:17;;;;;;;20.85;13.02;;;10.50;99.90;;;;;;4899667;29;20044;-80
2022/04/18 06:57:42;;;;;;;20.88;14.27;;;10.70;99.90;;;;;;4899487;29;20130;-78
2022/04/18 07:00:09;;;;;;;20.08;13.60;;;10.80;99.90;;;;;;4916438;29;20100;-78
2022/04/18 07:02:35;;;;;;;21.98;13.30;;;10.90;99.90;;;;;;4903315;29;20409;-78
2022/04/18 07:05:01;;;;;;;18.40;14.52;;;10.90;99.60;;;;;;4903039;29;20489;-79
2022/04/18 07:07:27;;;;;;;17.50;12.70;;;11.10;99.90;;;;;;4919512;29;20485;-78
2022/04/18 07:09:52;;;;;;;19.00;13.52;;;11.10;98.70;;;;;;4903187;29;20044;-78
2022/04/18 07:12:22;;;;;;;22.85;14.10;;;11.20;98.20;;;;;;4903111;29;20484;-81
2022/04/18 07:14:49;;;;;;;19.75;13.32;;;11.20;98.00;;;;;;4903138;29;20036;-79
2022/04/18 07:17:14;;;;;;;18.55;13.88;;;11.30;99.70;;;;;;4903015;29;20048;-80
2022/04/18 07:19:40;;;;;;;19.02;13.45;;;11.40;97.20;;;;;;4920222;29;20063;-80
2022/04/18 07:22:07;;;;;;;18.02;13.50;;;11.60;98.10;;;;;;4903038;29;20044;-79
2022/04/18 07:24:33;;;;;;;18.08;13.52;;;11.70;96.60;;;;;;4919869;29;20520;-78
2022/04/18 07:27:01;;;;;;;18.52;14.25;;;11.80;96.30;;;;;;4920010;29;20096;-80
2022/04/18 07:29:28;;;;;;;21.27;13.90;;;11.90;96.40;;;;;;4920128;29;20104;-80
2022/04/18 07:31:53;;;;;;;18.85;13.93;;;12.00;95.60;;;;;;4903117;29;20059;-80
2022/04/18 07:34:20;;;;;;;17.35;12.88;;;12.10;95.40;;;;;;4903052;29;20052;-79
2022/04/18 07:36:46;;;;;;;17.60;12.77;;;12.20;97.10;;;;;;4902578;29;20502;-81
2022/04/18 07:39:11;;;;;;;16.52;12.52;;;12.40;95.10;;;;;;4901855;29;20056;-80
2022/04/18 07:41:37;;;;;;;16.52;12.85;;;12.50;96.90;;;;;;4891601;29;20091;-80
2022/04/18 07:44:03;;;;;;;17.38;12.02;;;12.60;94.80;;;;;;4893839;29;20054;-80
2022/04/18 07:46:29;;;;;;;18.77;12.43;;;12.80;94.50;;;;;;4905588;29;20041;-80
2022/04/18 07:48:56;;;;;;;18.17;12.70;;;12.80;92.50;;;;;;4905697;29;20484;-80
2022/04/18 07:51:39;;;;;;;17.73;12.38;;;12.90;94.10;;;;;;4904925;29;20071;-80
2022/04/18 07:54:19;;;;;;;21.80;12.48;;;13.20;95.30;;;;;;4918353;29;20043;-81
2022/04/18 07:56:45;;;;;;;16.88;12.45;;;13.20;91.20;;;;;;4895589;29;20056;-79
2022/04/18 07:59:14;;;;;;;19.58;12.98;;;13.30;91.10;;;;;;4900696;29;20045;-81
2022/04/18 08:04:39;;;;;;;16.67;12.48;;;13.50;91.50;;;;;;4901470;29;20501;-80
2022/04/18 08:38:31;;;;;;;;;;;15.00;85.10;;;;;;4877572;29;20174;-79
2022/04/18 09:59:54;;;;;;;11.57;9.05;;;18.20;62.80;;;;;;5204394;23;20048;-82
2022/04/18 10:02:21;;;;;;;12.23;9.80;;;18.10;63.30;;;;;;4905512;29;20048;-82
2022/04/18 10:04:47;;;;;;;14.48;10.77;;;18.30;59.70;;;;;;4896951;29;20101;-84
2022/04/18 10:07:14;;;;;;;13.35;10.90;;;18.30;61.40;;;;;;4897535;29;20083;-83
2022/04/18 10:09:41;;;;;;;13.50;10.75;;;18.40;62.10;;;;;;4897540;29;20052;-82
2022/04/18 10:12:12;;;;;;;14.00;11.15;;;18.50;61.80;;;;;;4897100;29;20044;-85
2022/04/18 10:34:56;;;;;;;12.13;9.63;;;19.10;52.50;;;;;;4896915;29;20041;-82
2022/04/18 11:39:56;;;;;;;9.07;6.68;;;20.30;46.00;;;;;;4881522;29;20092;-83
2022/04/18 12:11:20;;;;;;;7.32;5.80;;;20.30;45.10;;;;;;4335996;23;20088;-82
2022/04/18 12:14:18;;;;;;;8.95;6.60;;;20.50;44.00;;;;;;4880289;29;20101;-83
2022/04/18 12:20:30;;;;;;;8.20;6.15;;;20.60;41.30;;;;;;4842209;29;20108;-82
2022/04/18 12:23:02;;;;;;;10.40;6.60;;;20.50;41.70;;;;;;4845644;29;20144;-81
2022/04/18 12:26:12;;;;;;;7.55;5.88;;;20.50;40.90;;;;;;4842853;29;20498;-81
2022/04/18 12:39:46;;;;;;;7.57;5.63;;;20.40;41.80;;;;;;4860647;29;20154;-82
2022/04/18 12:43:07;;;;;;;8.35;5.75;;;20.50;41.60;;;;;;4850891;29;20061;-81
2022/04/18 12:46:14;;;;;;;9.70;5.97;;;20.50;40.20;;;;;;4879613;29;20498;-83
2022/04/18 12:49:31;;;;;;;10.18;6.57;;;20.60;41.80;;;;;;4880388;29;20084;-80
2022/04/18 12:55:44;;;;;;;9.55;6.22;;;20.50;39.80;;;;;;4879890;29;20148;-84
2022/04/18 12:58:45;;;;;;;9.13;5.95;;;20.50;41.00;;;;;;4878850;29;20517;-83
2022/04/18 13:01:24;;;;;;;8.75;5.45;;;20.70;42.30;;;;;;4879446;29;20497;-82
2022/04/18 13:03:51;;;;;;;6.80;5.32;;;20.50;40.60;;;;;;4879432;29;20088;-85
2022/04/18 13:06:23;;;;;;;8.82;5.28;;;20.80;42.70;;;;;;4879773;29;20053;-89
2022/04/18 13:08:50;;;;;;;7.32;5.93;;;20.70;39.20;;;;;;4880072;29;20056;-87
2022/04/18 13:11:17;;;;;;;7.88;6.28;;;20.70;39.90;;;;;;4879402;29;20449;-85
2022/04/18 13:13:44;;;;;;;8.98;6.28;;;20.50;40.80;;;;;;4879459;29;20072;-83
2022/04/18 13:16:23;;;;;;;7.88;5.95;;;20.40;39.30;;;;;;4879402;29;20053;-85
2022/04/18 13:19:01;;;;;;;6.72;6.03;;;20.60;39.00;;;;;;4879317;29;20108;-84
2022/04/18 13:21:28;;;;;;;7.28;5.65;;;20.60;41.70;;;;;;4879091;29;20041;-80
2022/04/18 13:23:55;;;;;;;9.23;5.60;;;20.60;41.40;;;;;;4880495;29;20063;-86
2022/04/18 13:26:20;;;;;;;8.13;5.88;;;20.80;43.20;;;;;;4880324;29;20413;-86
2022/04/18 13:28:46;;;;;;;8.98;6.20;;;20.80;40.40;;;;;;4880716;29;20485;-82
2022/04/18 13:31:12;;;;;;;8.65;6.63;;;20.90;42.60;;;;;;4879028;29;20061;-84
2022/04/18 13:33:37;;;;;;;8.52;6.60;;;21.00;42.50;;;;;;4879139;29;20095;-83
2022/04/18 13:38:47;;;;;;;7.03;5.45;;;21.00;40.50;;;;;;4880046;29;20049;-81
2022/04/18 13:41:13;;;;;;;8.95;5.93;;;20.90;39.40;;;;;;4879182;29;20061;-81
2022/04/18 13:43:38;;;;;;;8.75;6.40;;;20.90;40.50;;;;;;4878881;29;20067;-82
2022/04/18 13:46:04;;;;;;;8.38;5.95;;;20.80;39.10;;;;;;4884789;29;20060;-81
2022/04/18 13:48:30;;;;;;;9.40;6.70;;;20.90;41.00;;;;;;4884124;29;20128;-83
2022/04/18 13:50:55;;;;;;;8.35;6.15;;;20.80;39.10;;;;;;4880250;29;20057;-81
2022/04/18 13:53:21;;;;;;;10.15;6.28;;;20.90;40.00;;;;;;4879081;29;20100;-85
2022/04/18 13:55:47;;;;;;;7.50;5.32;;;21.00;39.90;;;;;;4878996;29;20470;-84
2022/04/18 13:58:12;;;;;;;7.00;5.60;;;20.90;40.60;;;;;;4878939;29;20051;-83
2022/04/18 14:00:43;;;;;;;8.35;6.43;;;21.00;43.40;;;;;;4878725;29;20383;-84
2022/04/18 14:03:09;;;;;;;7.80;6.35;;;21.10;40.90;;;;;;4878957;29;20083;-83
2022/04/18 14:05:39;;;;;;;10.35;6.00;;;21.10;41.00;;;;;;4878204;29;20080;-83
2022/04/18 14:08:05;;;;;;;7.10;5.75;;;21.00;39.10;;;;;;4878324;29;20049;-84
2022/04/18 14:10:31;;;;;;;8.45;5.78;;;20.80;40.90;;;;;;4877736;29;20064;-81
2022/04/18 14:12:57;;;;;;;8.60;5.47;;;20.90;42.30;;;;;;4878296;29;20056;-84
2022/04/18 14:20:51;;;;;;;8.48;6.05;;;20.80;38.40;;;;;;4878088;29;20550;-83
2022/04/18 14:23:16;;;;;;;8.73;6.10;;;20.80;41.50;;;;;;4878178;29;20049;-83
2022/04/18 14:25:42;;;;;;;7.78;6.20;;;20.80;40.40;;;;;;4878085;29;20049;-84
2022/04/18 14:28:08;;;;;;;8.57;5.53;;;20.90;42.40;;;;;;4878273;29;20599;-79
2022/04/18 14:30:34;;;;;;;7.57;5.95;;;20.80;41.70;;;;;;4879513;29;20045;-82
2022/04/18 14:38:13;;;;;;;7.10;5.50;;;20.70;39.60;;;;;;5269647;23;20024;-82
2022/04/18 14:40:39;;;;;;;7.35;5.50;;;20.50;39.90;;;;;;4862510;29;20509;-82
2022/04/18 14:43:05;;;;;;;7.90;6.72;;;20.50;41.60;;;;;;4862782;29;20077;-81
2022/04/18 14:50:32;;;;;;;8.43;5.95;;;20.40;49.10;;;;;;5384792;23;20063;-80
2022/04/18 14:52:58;;;;;;;7.78;5.68;;;20.50;51.10;;;;;;4936000;29;20051;-82
2022/04/18 14:55:23;;;;;;;9.15;6.45;;;20.50;51.30;;;;;;4919034;29;20059;-82
2022/04/18 14:57:49;;;;;;;7.97;6.05;;;20.50;50.20;;;;;;4935948;29;20043;-82
2022/04/18 15:00:15;;;;;;;9.20;6.57;;;20.30;52.30;;;;;;4918742;29;20056;-83
2022/04/18 15:02:43;;;;;;;10.85;6.25;;;20.00;53.20;;;;;;4918599;29;20044;-84
2022/04/18 15:05:08;;;;;;;8.38;6.18;;;20.00;55.00;;;;;;4918466;29;20054;-83
2022/04/18 15:07:34;;;;;;;9.35;6.45;;;20.00;52.70;;;;;;4918812;29;20047;-84
2022/04/18 15:10:00;;;;;;;9.77;6.63;;;19.90;55.00;;;;;;4935669;29;20059;-83
2022/04/18 15:17:15;;;;;;;9.38;7.22;;;19.80;59.40;;;;;;4897678;29;20105;-84
2022/04/18 16:18:23;;;;;;;8.63;6.15;;;18.60;56.10;;;;;;4937534;29;20064;-86
2022/04/18 16:48:11;;;;;;;11.80;8.20;;;18.10;94.50;;;;;;4882994;29;20095;-83
2022/04/18 16:50:36;;;;;;;9.32;7.50;;;18.10;92.30;;;;;;4898852;29;20093;-83
2022/04/18 16:53:02;;;;;;;12.60;7.53;;;18.00;92.40;;;;;;4898653;29;20518;-82
2022/04/18 16:55:28;;;;;;;9.85;7.57;;;17.90;93.70;;;;;;4898070;29;20048;-81
2022/04/18 16:57:53;;;;;;;10.75;7.65;;;18.00;90.90;;;;;;4897693;29;20063;-82
2022/04/18 17:00:19;;;;;;;12.18;8.35;;;17.90;87.70;;;;;;4897350;29;20079;-83
2022/04/18 17:02:44;;;;;;;10.40;8.02;;;17.90;93.90;;;;;;4898263;29;20045;-82
2022/04/18 17:05:10;;;;;;;11.82;8.50;;;17.80;95.10;;;;;;4897615;29;20139;-81
2022/04/18 17:07:36;;;;;;;10.38;7.78;;;17.70;94.40;;;;;;4899488;29;20044;-83
2022/04/18 17:10:03;;;;;;;11.57;7.03;;;17.60;92.60;;;;;;4899712;29;20049;-82
2022/04/18 17:12:28;;;;;;;9.88;7.65;;;17.50;93.20;;;;;;4898422;29;20111;-82
2022/04/18 17:14:54;;;;;;;9.88;7.20;;;17.50;94.00;;;;;;4898150;29;20470;-83
2022/04/18 17:17:20;;;;;;;11.65;8.50;;;17.40;94.50;;;;;;4899513;29;20088;-83
2022/04/18 17:19:45;;;;;;;10.68;7.20;;;17.50;93.20;;;;;;4899541;29;20089;-81
2022/04/18 17:22:11;;;;;;;10.15;7.72;;;17.40;92.40;;;;;;4898501;29;20048;-86
2022/04/18 17:24:37;;;;;;;10.95;7.28;;;17.40;93.80;;;;;;4903207;29;20074;-83
2022/04/18 17:27:02;;;;;;;9.60;7.30;;;17.40;94.20;;;;;;4905648;29;20041;-82
2022/04/18 17:29:29;;;;;;;9.43;6.40;;;17.30;94.50;;;;;;4899743;29;20051;-84
2022/04/18 17:31:55;;;;;;;10.75;6.38;;;17.30;94.80;;;;;;4898394;29;20052;-82
2022/04/18 17:34:22;;;;;;;9.75;7.07;;;17.20;95.10;;;;;;4899505;29;20131;-81
2022/04/18 17:36:48;;;;;;;9.68;8.38;;;17.20;94.20;;;;;;4897697;29;20057;-81
2022/04/18 17:39:13;;;;;;;12.23;8.65;;;17.10;91.70;;;;;;4890772;29;20055;-81
2022/04/18 17:41:40;;;;;;;12.32;9.15;;;17.10;91.60;;;;;;4884518;29;20051;-84
2022/04/18 17:44:06;;;;;;;15.00;10.77;;;17.10;88.10;;;;;;4881638;29;20044;-85
2022/04/18 17:46:32;;;;;;;15.15;11.18;;;17.00;84.40;;;;;;4898614;29;20056;-84
2022/04/18 17:48:59;;;;;;;16.35;11.20;;;16.90;82.10;;;;;;4881979;29;20060;-84
2022/04/18 17:51:25;;;;;;;14.45;11.00;;;16.80;75.10;;;;;;4881895;29;20052;-84
2022/04/18 17:56:35;;;;;;;14.50;10.70;;;16.70;75.80;;;;;;4881673;29;20059;-84
2022/04/18 17:59:01;;;;;;;15.73;10.98;;;16.60;75.80;;;;;;4881814;29;20056;-84
2022/04/18 18:01:28;;;;;;;14.50;11.00;;;16.50;73.70;;;;;;4881837;29;20057;-84
2022/04/18 18:03:53;;;;;;;16.80;11.68;;;16.40;74.10;;;;;;4881784;29;20040;-84
2022/04/18 18:06:19;;;;;;;15.52;10.77;;;16.20;73.00;;;;;;4881719;29;20066;-84
2022/04/18 18:08:45;;;;;;;14.68;10.98;;;16.20;74.30;;;;;;4881814;29;20131;-84
2022/04/18 18:11:10;;;;;;;13.25;11.35;;;16.10;73.60;;;;;;4898609;29;20044;-84
2022/04/18 18:13:36;;;;;;;16.95;10.30;;;16.00;74.10;;;;;;4881707;29;20048;-84
2022/04/18 18:16:02;;;;;;;15.00;11.48;;;15.90;75.30;;;;;;4881796;29;20064;-84
2022/04/18 18:18:27;;;;;;;16.17;11.20;;;15.90;74.90;;;;;;4898379;29;20064;-84
2022/04/18 18:20:53;;;;;;;15.60;10.65;;;15.80;75.90;;;;;;5022739;23;20056;-82
2022/04/18 18:23:19;;;;;;;15.27;11.23;;;15.70;76.70;;;;;;4881442;29;20450;-82
2022/04/18 18:39:05;;;;;;;18.90;12.65;;;15.10;86.10;;;;;;4802222;29;20054;-82
2022/04/18 18:41:30;;;;;;;14.50;10.93;;;14.90;91.70;;;;;;4788587;29;20428;-82
2022/04/18 18:43:56;;;;;;;13.90;10.88;;;14.90;93.90;;;;;;4788264;29;20047;-82
2022/04/18 18:46:22;;;;;;;13.93;10.63;;;14.70;99.90;;;;;;4809605;29;20151;-82
2022/04/18 18:48:47;;;;;;;13.77;10.30;;;14.60;99.90;;;;;;4880981;29;20049;-81
2022/04/18 18:53:57;;;;;;;14.73;10.23;;;14.50;99.90;;;;;;4881181;29;20059;-83
2022/04/18 18:56:23;;;;;;;14.35;10.60;;;14.40;99.90;;;;;;4881419;29;20048;-83
2022/04/18 18:58:50;;;;;;;13.95;11.27;;;14.30;99.90;;;;;;4885278;29;20059;-81
2022/04/18 19:01:15;;;;;;;13.35;10.85;;;14.20;99.90;;;;;;4885062;29;20048;-81
2022/04/18 19:03:41;;;;;;;13.73;11.20;;;14.10;99.90;;;;;;4884613;29;20423;-81